createdAt,value
2023-03-10T00:02:38.459Z,3.47
2023-03-10T00:07:44.462Z,1.17
2023-03-10T00:12:49.640Z,3.93
2023-03-10T00:17:55.966Z,4.43
2023-03-10T00:23:01.179Z,12.47
2023-03-10T00:28:06.226Z,4.53
2023-03-10T00:33:11.411Z,2.07
2023-03-10T00:38:16.431Z,3.87
2023-03-10T00:43:22.028Z,3.77
2023-03-10T00:48:27.969Z,16.83
2023-03-10T00:53:35.256Z,2.17
2023-03-10T00:58:40.931Z,2.90
2023-03-10T01:03:47.194Z,4.63
2023-03-10T01:08:52.736Z,2.63
2023-03-10T01:14:00.426Z,3.70
2023-03-10T01:19:05.920Z,6.43
2023-03-10T01:24:16.581Z,6.93
2023-03-10T01:29:21.814Z,2.10
2023-03-10T01:34:26.998Z,7.80
2023-03-10T01:39:32.253Z,5.67
2023-03-10T01:44:37.411Z,12.13
2023-03-10T01:49:45.606Z,4.60
2023-03-10T02:00:27.117Z,18.13
2023-03-10T02:05:33.163Z,6.13
2023-03-10T02:10:39.731Z,8.93
2023-03-10T02:15:45.372Z,5.50
2023-03-10T02:20:53.535Z,6.27
2023-03-10T02:26:13.338Z,7.13
2023-03-10T02:31:19.702Z,11.03
2023-03-10T02:36:25.943Z,4.63
2023-03-10T02:41:37.223Z,7.70
2023-03-10T02:46:42.565Z,6.30
2023-03-10T02:51:48.813Z,6.67
2023-03-10T02:56:53.964Z,3.50
2023-03-10T03:01:59.021Z,4.63
2023-03-10T03:07:04.114Z,4.60
2023-03-10T03:12:09.865Z,5.10
2023-03-10T03:17:14.933Z,9.27
2023-03-10T03:22:20.117Z,5.43
2023-03-10T03:27:25.247Z,8.60
2023-03-10T03:32:30.477Z,5.23
2023-03-10T03:37:35.566Z,8.83
2023-03-10T03:42:45.724Z,7.70
2023-03-10T03:47:52.716Z,4.23
2023-03-10T03:52:58.425Z,5.57
2023-03-10T03:58:03.506Z,9.60
2023-03-10T04:03:09.776Z,14.33
2023-03-10T04:08:16.015Z,8.90
2023-03-10T04:13:21.432Z,5.80
2023-03-10T04:18:26.597Z,5.43
2023-03-10T04:23:31.756Z,8.20
2023-03-10T04:28:36.857Z,11.27
2023-03-10T04:33:42.028Z,6.93
2023-03-10T04:38:48.036Z,4.50
2023-03-10T04:43:53.277Z,9.77
2023-03-10T04:48:58.975Z,6.77
2023-03-10T04:54:04.289Z,7.57
2023-03-10T04:59:09.476Z,7.30
2023-03-10T05:04:14.692Z,7.43
2023-03-10T05:09:20.105Z,8.67
2023-03-10T05:14:25.596Z,5.93
2023-03-10T05:19:30.709Z,9.03
2023-03-10T05:24:37.556Z,11.07
2023-03-10T05:29:42.713Z,7.60
2023-03-10T05:34:47.812Z,4.93
2023-03-10T05:39:52.910Z,8.40
2023-03-10T05:44:58.010Z,10.30
2023-03-10T05:50:04.849Z,7.03
2023-03-10T05:55:13.059Z,11.43
2023-03-10T06:00:19.278Z,5.53
2023-03-10T06:05:24.551Z,12.93
2023-03-10T06:10:29.731Z,6.57
2023-03-10T06:15:35.750Z,10.70
2023-03-10T06:20:41.381Z,3.47
2023-03-10T06:25:49.626Z,6.97
2023-03-10T06:31:00.597Z,5.53
2023-03-10T06:36:07.759Z,11.13
2023-03-10T06:41:19.158Z,7.07
2023-03-10T06:46:32.139Z,7.30
2023-03-10T06:51:40.552Z,8.80
2023-03-10T06:56:47.628Z,4.73
2023-03-10T07:01:55.208Z,10.50
2023-03-10T07:07:00.355Z,9.20
2023-03-10T07:12:08.686Z,20.80
2023-03-10T07:17:14.628Z,7.70
2023-03-10T07:22:19.768Z,14.67
2023-03-10T07:27:25.034Z,13.40
2023-03-10T07:32:30.331Z,9.57
2023-03-10T07:37:38.695Z,12.70
2023-03-10T07:42:44.962Z,9.77
2023-03-10T07:47:52.429Z,11.57
2023-03-10T07:52:57.828Z,11.80
2023-03-10T07:58:03.187Z,21.10
2023-03-10T08:03:08.580Z,13.43
2023-03-10T08:08:17.286Z,11.30
2023-03-10T08:13:22.660Z,13.50
2023-03-10T08:18:30.162Z,8.23
2023-03-10T08:23:36.833Z,5.47
2023-03-10T08:28:42.416Z,5.73
2023-03-10T08:33:50.030Z,8.57
2023-03-10T08:38:56.778Z,7.87
2023-03-10T08:44:02.927Z,10.10
2023-03-10T08:49:08.396Z,4.77
2023-03-10T08:54:16.780Z,10.47
2023-03-10T08:59:24.633Z,10.87
2023-03-10T09:04:29.861Z,9.13
2023-03-10T09:09:35.163Z,14.77
2023-03-10T09:14:40.535Z,12.33
2023-03-10T09:19:46.254Z,9.43
2023-03-10T09:24:51.571Z,7.60
2023-03-10T09:29:58.055Z,13.67
2023-03-10T09:35:03.938Z,9.93
2023-03-10T09:40:12.241Z,10.20
2023-03-10T09:45:23.479Z,13.50
2023-03-10T09:50:39.171Z,8.47
2023-03-10T09:55:48.556Z,6.90
2023-03-10T10:01:01.682Z,14.03
2023-03-10T10:06:07.906Z,21.67
2023-03-10T10:11:17.992Z,30.93
2023-03-10T10:16:34.898Z,20.47
2023-03-10T10:21:48.498Z,18.73
2023-03-10T10:26:53.873Z,22.33
2023-03-10T10:32:11.250Z,17.83
2023-03-10T10:37:25.146Z,11.07
2023-03-10T10:42:33.063Z,13.83
2023-03-10T10:47:52.785Z,9.43
2023-03-10T10:53:17.697Z,13.70
2023-03-10T10:58:28.760Z,8.23
2023-03-10T11:03:37.574Z,18.87
2023-03-10T11:08:44.599Z,14.00
2023-03-10T11:14:14.445Z,13.17
2023-03-10T11:19:32.136Z,14.63
2023-03-10T11:24:43.699Z,13.27
2023-03-10T11:30:08.397Z,10.30
2023-03-10T11:35:19.563Z,11.80
2023-03-10T11:40:27.877Z,13.10
2023-03-10T11:45:41.907Z,9.33
2023-03-10T11:51:01.953Z,9.53
2023-03-10T11:56:09.975Z,13.37
2023-03-10T12:01:18.101Z,13.47
2023-03-10T12:06:26.904Z,24.13
2023-03-10T12:11:32.802Z,18.10
2023-03-10T12:16:41.574Z,33.03
2023-03-10T12:21:49.028Z,31.67
2023-03-10T12:27:03.606Z,26.13
2023-03-10T12:32:26.929Z,16.63
2023-03-10T12:37:32.088Z,21.43
2023-03-10T12:42:37.432Z,22.27
2023-03-10T12:47:48.278Z,18.20
2023-03-10T12:53:00.172Z,21.77
2023-03-10T12:58:20.354Z,26.13
2023-03-10T13:03:35.567Z,23.00
2023-03-10T13:08:59.384Z,21.40
2023-03-10T13:14:23.088Z,23.53
2023-03-10T13:19:31.245Z,31.27
2023-03-10T13:24:42.655Z,32.10
2023-03-10T13:30:15.578Z,29.07
2023-03-10T13:35:37.637Z,35.13
2023-03-10T13:40:50.345Z,37.40
2023-03-10T13:46:02.480Z,33.07
2023-03-10T13:51:33.456Z,29.63
2023-03-10T13:56:42.496Z,24.63
2023-03-10T14:01:51.191Z,26.13
2023-03-10T14:07:11.236Z,39.37
2023-03-10T14:12:21.846Z,38.97
2023-03-10T14:17:36.032Z,47.13
2023-03-10T14:22:43.935Z,33.83
2023-03-10T14:28:00.693Z,36.27
2023-03-10T14:33:09.061Z,35.60
2023-03-10T14:38:14.330Z,35.97
2023-03-10T14:43:28.166Z,74.57
2023-03-10T14:48:37.768Z,42.83
2023-03-10T14:53:43.039Z,27.90
2023-03-10T14:58:51.335Z,40.00
2023-03-10T15:03:56.589Z,37.20
2023-03-10T15:09:03.560Z,33.77
2023-03-10T15:14:20.674Z,24.17
2023-03-10T15:19:27.915Z,25.20
2023-03-10T15:24:34.321Z,28.33
2023-03-10T15:29:39.621Z,48.97
2023-03-10T15:34:45.657Z,27.70
2023-03-10T15:39:51.030Z,22.50
2023-03-10T15:44:56.237Z,29.43
2023-03-10T15:50:03.184Z,29.37
2023-03-10T15:55:10.186Z,22.60
2023-03-10T16:00:17.836Z,49.87
2023-03-10T16:05:23.691Z,28.40
2023-03-10T16:10:28.809Z,29.70
2023-03-10T16:15:39.501Z,30.80
2023-03-10T16:20:44.750Z,36.10
2023-03-10T16:26:04.812Z,26.30
2023-03-10T16:31:11.092Z,27.57
2023-03-10T16:36:19.296Z,20.37
2023-03-10T16:41:26.425Z,33.43
2023-03-10T16:46:33.074Z,25.83
2023-03-10T16:51:42.417Z,22.87
2023-03-10T16:56:50.060Z,32.53
2023-03-10T17:01:55.642Z,27.20
2023-03-10T17:07:02.252Z,25.13
2023-03-10T17:12:07.796Z,27.73
2023-03-10T17:17:14.178Z,21.30
2023-03-10T17:22:20.995Z,20.17
2023-03-10T17:27:26.813Z,19.63
2023-03-10T17:32:31.987Z,18.90
2023-03-10T17:37:38.901Z,29.27
2023-03-10T17:42:44.249Z,34.37
2023-03-10T17:47:52.463Z,42.40
2023-03-10T17:52:57.761Z,27.33
2023-03-10T17:58:02.909Z,171.53
2023-03-10T18:03:08.314Z,213.50
2023-03-10T18:08:15.019Z,272.47
2023-03-10T18:13:21.358Z,513.13
2023-03-10T18:18:27.142Z,92.87
2023-03-10T18:23:33.206Z,58.17
2023-03-10T18:28:43.178Z,44.00
2023-03-10T18:33:51.988Z,29.87
2023-03-10T18:38:58.788Z,38.70
2023-03-10T18:44:04.072Z,33.67
2023-03-10T18:49:09.291Z,61.20
2023-03-10T18:54:14.709Z,51.13
2023-03-10T18:59:19.846Z,35.97
2023-03-10T19:04:25.426Z,33.77
2023-03-10T19:09:30.660Z,20.60
2023-03-10T19:14:36.758Z,25.63
2023-03-10T19:19:41.997Z,19.93
2023-03-10T19:24:47.238Z,27.93
2023-03-10T19:29:58.349Z,28.50
2023-03-10T19:35:05.430Z,20.30
2023-03-10T19:40:21.807Z,27.83
2023-03-10T19:45:29.012Z,24.40
2023-03-10T19:50:35.422Z,16.97
2023-03-10T19:55:41.292Z,25.27
2023-03-10T20:00:46.689Z,19.03
2023-03-10T20:05:52.748Z,14.60
2023-03-10T20:10:59.624Z,19.97
2023-03-10T20:16:05.108Z,28.10
2023-03-10T20:21:10.616Z,20.57
2023-03-10T20:26:16.884Z,22.43
2023-03-10T20:31:24.448Z,28.17
2023-03-10T20:36:29.790Z,18.90
2023-03-10T20:41:35.728Z,27.53
2023-03-10T20:46:42.524Z,18.10
2023-03-10T20:51:49.408Z,19.17
2023-03-10T20:56:54.601Z,19.30
2023-03-10T21:01:59.897Z,19.80
2023-03-10T21:07:05.117Z,23.40
2023-03-10T21:12:12.544Z,16.43
2023-03-10T21:17:17.740Z,24.13
2023-03-10T21:22:23.659Z,18.53
2023-03-10T21:27:28.986Z,23.00
2023-03-10T21:32:34.313Z,33.80
2023-03-10T21:37:42.229Z,20.90
2023-03-10T21:42:49.692Z,18.53
2023-03-10T21:47:54.973Z,23.23
2023-03-10T21:53:00.244Z,18.43
2023-03-10T21:58:06.364Z,18.37
2023-03-10T22:03:11.662Z,20.70
2023-03-10T22:08:16.778Z,14.40
2023-03-10T22:13:22.008Z,26.73
2023-03-10T22:18:27.657Z,152.90
2023-03-10T22:23:32.889Z,44.90
2023-03-10T22:28:38.350Z,36.23
2023-03-10T22:33:43.574Z,40.97
2023-03-10T22:38:48.853Z,18.27
2023-03-10T22:43:56.246Z,15.37
2023-03-10T22:49:01.468Z,19.57
2023-03-10T22:54:07.900Z,17.37
2023-03-10T22:59:13.229Z,7.30
2023-03-10T23:04:18.487Z,21.33
2023-03-10T23:09:24.345Z,11.00
2023-03-10T23:14:29.674Z,13.63
2023-03-10T23:19:35.845Z,22.67
2023-03-10T23:24:41.142Z,24.27
2023-03-10T23:29:46.738Z,13.50
2023-03-10T23:34:52.400Z,9.80
2023-03-10T23:39:57.756Z,12.67
2023-03-10T23:45:06.071Z,8.23
2023-03-10T23:50:14.334Z,11.43
2023-03-10T23:55:25.194Z,10.97
